Bemidji, Minnesota
Current Conditions -  °F | °C
As of 8:14 AM on Monday 22 Dec 2014 (Local Time) from KBJI Reporting Station
Haze Haze  
Wind Chill: 27°   Ceiling: 400
Heat Index: 34°   Visibility: 1.5mi
Dew Point: 33°   Wind: 8mph
Humidity: 99%   Direction: 110°ESE
Pressure: 29.57"   Gusts: NA
Location:  47.47°N, 94.88°W
Report Text: KBJI 221414Z AUTO 11007KT 1 1/2SM BR OVC004 01/01 A2957 RMK AO2 T00090008
Loading
Personal Weather Stations






























Interactive Weather Map New forecast layout! Learn more

10-Day Weather Forecast

Advertisements
Track Severe Weather on mobile